sensor_id;sensor_type;location;lat;lon;timestamp;P1;durP1;ratioP1;P2;durP2;ratioP2
49123;SDS011;48506;48.202;16.274;2024-03-02T00:00:18;122.43;;;55.70;;
49123;SDS011;48506;48.202;16.274;2024-03-02T00:02:47;126.55;;;60.35;;
49123;SDS011;48506;48.202;16.274;2024-03-02T00:05:18;120.15;;;56.42;;
49123;SDS011;48506;48.202;16.274;2024-03-02T00:07:46;117.88;;;56.35;;
49123;SDS011;48506;48.202;16.274;2024-03-02T00:10:22;129.75;;;59.83;;
49123;SDS011;48506;48.202;16.274;2024-03-02T00:12:57;121.10;;;58.03;;
49123;SDS011;48506;48.202;16.274;2024-03-02T00:18:13;131.98;;;58.47;;
49123;SDS011;48506;48.202;16.274;2024-03-02T00:20:44;113.85;;;53.25;;
49123;SDS011;48506;48.202;16.274;2024-03-02T00:23:13;132.48;;;59.78;;
49123;SDS011;48506;48.202;16.274;2024-03-02T00:25:41;115.57;;;57.08;;
49123;SDS011;48506;48.202;16.274;2024-03-02T00:28:19;148.30;;;62.75;;
49123;SDS011;48506;48.202;16.274;2024-03-02T00:33:43;111.28;;;54.47;;
49123;SDS011;48506;48.202;16.274;2024-03-02T00:36:16;119.53;;;56.97;;
49123;SDS011;48506;48.202;16.274;2024-03-02T00:38:50;124.60;;;58.78;;
49123;SDS011;48506;48.202;16.274;2024-03-02T00:41:22;127.57;;;56.20;;
49123;SDS011;48506;48.202;16.274;2024-03-02T00:46:31;126.22;;;56.35;;
49123;SDS011;48506;48.202;16.274;2024-03-02T00:49:03;107.10;;;54.30;;
49123;SDS011;48506;48.202;16.274;2024-03-02T00:51:31;127.78;;;57.53;;
49123;SDS011;48506;48.202;16.274;2024-03-02T00:54:01;117.40;;;54.08;;
49123;SDS011;48506;48.202;16.274;2024-03-02T00:56:32;104.88;;;52.50;;
49123;SDS011;48506;48.202;16.274;2024-03-02T00:59:00;127.95;;;56.65;;
49123;SDS011;48506;48.202;16.274;2024-03-02T01:01:26;117.78;;;54.50;;
49123;SDS011;48506;48.202;16.274;2024-03-02T01:03:52;138.65;;;57.78;;
49123;SDS011;48506;48.202;16.274;2024-03-02T01:06:18;124.22;;;56.30;;
49123;SDS011;48506;48.202;16.274;2024-03-02T01:08:44;126.53;;;56.92;;
49123;SDS011;48506;48.202;16.274;2024-03-02T01:11:11;150.85;;;60.75;;
49123;SDS011;48506;48.202;16.274;2024-03-02T01:13:37;111.18;;;53.90;;
49123;SDS011;48506;48.202;16.274;2024-03-02T01:16:03;130.82;;;56.80;;
49123;SDS011;48506;48.202;16.274;2024-03-02T01:18:29;118.88;;;54.97;;
49123;SDS011;48506;48.202;16.274;2024-03-02T01:20:56;238.10;;;76.13;;
49123;SDS011;48506;48.202;16.274;2024-03-02T01:23:22;155.05;;;64.38;;
49123;SDS011;48506;48.202;16.274;2024-03-02T01:25:49;263.90;;;73.68;;
49123;SDS011;48506;48.202;16.274;2024-03-02T01:28:15;141.77;;;64.32;;
49123;SDS011;48506;48.202;16.274;2024-03-02T01:30:42;160.82;;;66.97;;
49123;SDS011;48506;48.202;16.274;2024-03-02T01:33:08;262.65;;;82.20;;
49123;SDS011;48506;48.202;16.274;2024-03-02T01:35:34;130.65;;;57.50;;
49123;SDS011;48506;48.202;16.274;2024-03-02T01:38:01;140.20;;;59.70;;
49123;SDS011;48506;48.202;16.274;2024-03-02T01:40:27;127.60;;;62.92;;
49123;SDS011;48506;48.202;16.274;2024-03-02T01:42:53;134.50;;;59.67;;
49123;SDS011;48506;48.202;16.274;2024-03-02T01:45:21;120.22;;;55.50;;
49123;SDS011;48506;48.202;16.274;2024-03-02T01:47:47;133.70;;;56.40;;
49123;SDS011;48506;48.202;16.274;2024-03-02T01:50:13;118.57;;;54.42;;
49123;SDS011;48506;48.202;16.274;2024-03-02T01:52:39;128.48;;;58.30;;
49123;SDS011;48506;48.202;16.274;2024-03-02T01:55:06;120.13;;;54.70;;
49123;SDS011;48506;48.202;16.274;2024-03-02T01:57:32;125.55;;;53.33;;
49123;SDS011;48506;48.202;16.274;2024-03-02T01:59:59;124.00;;;55.47;;
49123;SDS011;48506;48.202;16.274;2024-03-02T02:02:26;117.03;;;53.13;;
49123;SDS011;48506;48.202;16.274;2024-03-02T02:04:52;105.18;;;52.50;;
49123;SDS011;48506;48.202;16.274;2024-03-02T02:07:18;104.82;;;50.80;;
49123;SDS011;48506;48.202;16.274;2024-03-02T02:09:44;117.05;;;53.55;;
49123;SDS011;48506;48.202;16.274;2024-03-02T02:12:10;111.20;;;49.72;;
49123;SDS011;48506;48.202;16.274;2024-03-02T02:14:36;108.43;;;53.53;;
49123;SDS011;48506;48.202;16.274;2024-03-02T02:17:02;116.90;;;52.38;;
49123;SDS011;48506;48.202;16.274;2024-03-02T02:19:28;122.10;;;51.55;;
49123;SDS011;48506;48.202;16.274;2024-03-02T02:21:54;114.65;;;52.22;;
49123;SDS011;48506;48.202;16.274;2024-03-02T02:24:20;124.45;;;54.60;;
49123;SDS011;48506;48.202;16.274;2024-03-02T02:26:46;122.30;;;53.80;;
49123;SDS011;48506;48.202;16.274;2024-03-02T02:29:12;145.15;;;55.38;;
49123;SDS011;48506;48.202;16.274;2024-03-02T02:31:38;136.32;;;59.15;;
49123;SDS011;48506;48.202;16.274;2024-03-02T02:34:07;129.23;;;56.55;;
49123;SDS011;48506;48.202;16.274;2024-03-02T02:36:34;123.95;;;55.13;;
49123;SDS011;48506;48.202;16.274;2024-03-02T02:39:03;121.75;;;53.38;;
49123;SDS011;48506;48.202;16.274;2024-03-02T02:41:32;112.13;;;52.45;;
49123;SDS011;48506;48.202;16.274;2024-03-02T02:43:58;118.57;;;52.97;;
49123;SDS011;48506;48.202;16.274;2024-03-02T02:46:24;115.50;;;50.03;;
49123;SDS011;48506;48.202;16.274;2024-03-02T02:48:50;107.00;;;51.33;;
49123;SDS011;48506;48.202;16.274;2024-03-02T02:51:18;107.18;;;51.00;;
49123;SDS011;48506;48.202;16.274;2024-03-02T02:53:44;115.53;;;51.72;;
49123;SDS011;48506;48.202;16.274;2024-03-02T02:56:10;119.20;;;54.25;;
49123;SDS011;48506;48.202;16.274;2024-03-02T02:58:36;118.88;;;53.35;;
49123;SDS011;48506;48.202;16.274;2024-03-02T03:01:01;117.97;;;53.33;;
49123;SDS011;48506;48.202;16.274;2024-03-02T03:03:27;130.52;;;55.53;;
49123;SDS011;48506;48.202;16.274;2024-03-02T03:05:53;108.47;;;53.83;;
49123;SDS011;48506;48.202;16.274;2024-03-02T03:08:19;116.07;;;53.67;;
49123;SDS011;48506;48.202;16.274;2024-03-02T03:10:45;144.32;;;61.78;;
49123;SDS011;48506;48.202;16.274;2024-03-02T03:13:11;139.40;;;57.13;;
49123;SDS011;48506;48.202;16.274;2024-03-02T03:15:37;119.90;;;54.95;;
49123;SDS011;48506;48.202;16.274;2024-03-02T03:18:03;121.88;;;56.60;;
49123;SDS011;48506;48.202;16.274;2024-03-02T03:20:30;127.18;;;56.67;;
49123;SDS011;48506;48.202;16.274;2024-03-02T03:22:56;132.18;;;57.75;;
49123;SDS011;48506;48.202;16.274;2024-03-02T03:25:22;164.38;;;63.90;;
49123;SDS011;48506;48.202;16.274;2024-03-02T03:27:48;128.80;;;59.67;;
49123;SDS011;48506;48.202;16.274;2024-03-02T03:30:14;138.95;;;61.28;;
49123;SDS011;48506;48.202;16.274;2024-03-02T03:32:40;139.52;;;58.30;;
49123;SDS011;48506;48.202;16.274;2024-03-02T03:35:06;129.70;;;57.53;;
49123;SDS011;48506;48.202;16.274;2024-03-02T03:37:32;125.22;;;57.63;;
49123;SDS011;48506;48.202;16.274;2024-03-02T03:39:59;158.05;;;64.75;;
49123;SDS011;48506;48.202;16.274;2024-03-02T03:42:26;163.02;;;63.95;;
49123;SDS011;48506;48.202;16.274;2024-03-02T03:44:52;178.93;;;66.10;;
49123;SDS011;48506;48.202;16.274;2024-03-02T03:47:18;157.75;;;62.25;;
49123;SDS011;48506;48.202;16.274;2024-03-02T03:49:45;131.77;;;59.30;;
49123;SDS011;48506;48.202;16.274;2024-03-02T03:52:11;152.30;;;61.38;;
49123;SDS011;48506;48.202;16.274;2024-03-02T03:54:36;191.55;;;65.72;;
49123;SDS011;48506;48.202;16.274;2024-03-02T03:57:04;190.48;;;68.13;;
49123;SDS011;48506;48.202;16.274;2024-03-02T03:59:30;183.98;;;66.40;;
49123;SDS011;48506;48.202;16.274;2024-03-02T04:01:56;143.13;;;60.08;;
49123;SDS011;48506;48.202;16.274;2024-03-02T04:04:21;167.48;;;65.57;;
49123;SDS011;48506;48.202;16.274;2024-03-02T04:06:47;178.32;;;67.32;;
49123;SDS011;48506;48.202;16.274;2024-03-02T04:09:13;159.20;;;64.30;;
49123;SDS011;48506;48.202;16.274;2024-03-02T04:11:39;140.20;;;58.35;;
49123;SDS011;48506;48.202;16.274;2024-03-02T04:14:05;182.93;;;65.68;;
49123;SDS011;48506;48.202;16.274;2024-03-02T04:16:31;151.18;;;61.35;;
49123;SDS011;48506;48.202;16.274;2024-03-02T04:18:57;157.77;;;64.85;;
49123;SDS011;48506;48.202;16.274;2024-03-02T04:21:23;169.38;;;66.78;;
49123;SDS011;48506;48.202;16.274;2024-03-02T04:23:49;170.85;;;65.53;;
49123;SDS011;48506;48.202;16.274;2024-03-02T04:26:15;154.23;;;61.17;;
49123;SDS011;48506;48.202;16.274;2024-03-02T04:28:45;153.75;;;63.28;;
49123;SDS011;48506;48.202;16.274;2024-03-02T04:31:10;153.85;;;62.75;;
49123;SDS011;48506;48.202;16.274;2024-03-02T04:33:36;157.80;;;64.68;;
49123;SDS011;48506;48.202;16.274;2024-03-02T04:36:02;156.85;;;63.10;;
49123;SDS011;48506;48.202;16.274;2024-03-02T04:38:28;168.85;;;64.35;;
49123;SDS011;48506;48.202;16.274;2024-03-02T04:40:55;138.32;;;61.38;;
49123;SDS011;48506;48.202;16.274;2024-03-02T04:43:21;173.27;;;65.93;;
49123;SDS011;48506;48.202;16.274;2024-03-02T04:45:47;138.32;;;60.28;;
49123;SDS011;48506;48.202;16.274;2024-03-02T04:48:13;190.75;;;67.57;;
49123;SDS011;48506;48.202;16.274;2024-03-02T04:50:39;200.65;;;67.47;;
49123;SDS011;48506;48.202;16.274;2024-03-02T04:53:05;168.15;;;62.30;;
49123;SDS011;48506;48.202;16.274;2024-03-02T04:55:31;150.15;;;57.20;;
49123;SDS011;48506;48.202;16.274;2024-03-02T04:58:00;129.35;;;55.08;;
49123;SDS011;48506;48.202;16.274;2024-03-02T05:00:26;123.07;;;53.15;;
49123;SDS011;48506;48.202;16.274;2024-03-02T05:02:52;137.23;;;55.40;;
49123;SDS011;48506;48.202;16.274;2024-03-02T05:05:17;120.53;;;51.63;;
49123;SDS011;48506;48.202;16.274;2024-03-02T05:07:43;115.68;;;52.65;;
49123;SDS011;48506;48.202;16.274;2024-03-02T05:10:09;123.82;;;53.58;;
49123;SDS011;48506;48.202;16.274;2024-03-02T05:12:39;128.23;;;55.22;;
49123;SDS011;48506;48.202;16.274;2024-03-02T05:15:12;120.88;;;52.25;;
49123;SDS011;48506;48.202;16.274;2024-03-02T05:17:39;113.38;;;48.33;;
49123;SDS011;48506;48.202;16.274;2024-03-02T05:20:08;115.47;;;50.42;;
49123;SDS011;48506;48.202;16.274;2024-03-02T05:22:34;132.27;;;55.60;;
49123;SDS011;48506;48.202;16.274;2024-03-02T05:25:01;122.68;;;51.17;;
49123;SDS011;48506;48.202;16.274;2024-03-02T05:27:30;117.27;;;49.30;;
49123;SDS011;48506;48.202;16.274;2024-03-02T05:29:58;106.38;;;48.60;;
49123;SDS011;48506;48.202;16.274;2024-03-02T05:32:24;100.55;;;47.78;;
49123;SDS011;48506;48.202;16.274;2024-03-02T05:34:50;78.88;;;43.42;;
49123;SDS011;48506;48.202;16.274;2024-03-02T05:37:17;84.50;;;43.45;;
49123;SDS011;48506;48.202;16.274;2024-03-02T05:39:43;85.32;;;43.08;;
49123;SDS011;48506;48.202;16.274;2024-03-02T05:42:09;117.25;;;48.00;;
49123;SDS011;48506;48.202;16.274;2024-03-02T05:44:36;86.88;;;42.30;;
49123;SDS011;48506;48.202;16.274;2024-03-02T05:47:02;89.30;;;44.42;;
49123;SDS011;48506;48.202;16.274;2024-03-02T05:49:29;96.15;;;45.10;;
49123;SDS011;48506;48.202;16.274;2024-03-02T05:51:55;125.57;;;51.25;;
49123;SDS011;48506;48.202;16.274;2024-03-02T05:54:21;109.75;;;48.50;;
49123;SDS011;48506;48.202;16.274;2024-03-02T05:56:47;93.93;;;46.50;;
49123;SDS011;48506;48.202;16.274;2024-03-02T05:59:13;105.15;;;47.17;;
49123;SDS011;48506;48.202;16.274;2024-03-02T06:01:39;108.80;;;47.58;;
49123;SDS011;48506;48.202;16.274;2024-03-02T06:04:06;115.85;;;52.88;;
49123;SDS011;48506;48.202;16.274;2024-03-02T06:06:32;103.38;;;49.10;;
49123;SDS011;48506;48.202;16.274;2024-03-02T06:09:02;106.93;;;47.58;;
49123;SDS011;48506;48.202;16.274;2024-03-02T06:11:37;148.85;;;56.08;;
49123;SDS011;48506;48.202;16.274;2024-03-02T06:14:05;127.35;;;50.65;;
49123;SDS011;48506;48.202;16.274;2024-03-02T06:16:32;170.93;;;53.97;;
49123;SDS011;48506;48.202;16.274;2024-03-02T06:18:58;118.78;;;43.53;;
49123;SDS011;48506;48.202;16.274;2024-03-02T06:21:25;96.72;;;41.33;;
49123;SDS011;48506;48.202;16.274;2024-03-02T06:23:51;139.65;;;43.97;;
49123;SDS011;48506;48.202;16.274;2024-03-02T06:26:17;95.18;;;39.33;;
49123;SDS011;48506;48.202;16.274;2024-03-02T06:28:43;235.15;;;57.83;;
49123;SDS011;48506;48.202;16.274;2024-03-02T06:31:10;125.43;;;42.05;;
49123;SDS011;48506;48.202;16.274;2024-03-02T06:33:36;167.98;;;49.53;;
49123;SDS011;48506;48.202;16.274;2024-03-02T06:36:02;164.73;;;43.20;;
49123;SDS011;48506;48.202;16.274;2024-03-02T06:38:29;167.30;;;47.53;;
49123;SDS011;48506;48.202;16.274;2024-03-02T06:40:57;305.20;;;59.38;;
49123;SDS011;48506;48.202;16.274;2024-03-02T06:43:23;238.80;;;48.70;;
49123;SDS011;48506;48.202;16.274;2024-03-02T06:45:49;157.35;;;42.78;;
49123;SDS011;48506;48.202;16.274;2024-03-02T06:48:16;97.53;;;42.33;;
49123;SDS011;48506;48.202;16.274;2024-03-02T06:50:47;157.10;;;43.30;;
49123;SDS011;48506;48.202;16.274;2024-03-02T06:53:14;196.85;;;50.85;;
49123;SDS011;48506;48.202;16.274;2024-03-02T06:55:46;134.43;;;46.10;;
49123;SDS011;48506;48.202;16.274;2024-03-02T06:58:12;154.30;;;46.70;;
49123;SDS011;48506;48.202;16.274;2024-03-02T07:00:40;181.48;;;53.15;;
49123;SDS011;48506;48.202;16.274;2024-03-02T07:03:07;142.00;;;47.33;;
49123;SDS011;48506;48.202;16.274;2024-03-02T07:05:33;205.75;;;56.55;;
49123;SDS011;48506;48.202;16.274;2024-03-02T07:07:59;230.88;;;56.67;;
49123;SDS011;48506;48.202;16.274;2024-03-02T07:10:26;138.60;;;48.10;;
49123;SDS011;48506;48.202;16.274;2024-03-02T07:12:53;323.42;;;62.75;;
49123;SDS011;48506;48.202;16.274;2024-03-02T07:15:18;119.07;;;42.15;;
49123;SDS011;48506;48.202;16.274;2024-03-02T07:17:53;174.32;;;50.10;;
49123;SDS011;48506;48.202;16.274;2024-03-02T07:20:19;208.32;;;55.50;;
49123;SDS011;48506;48.202;16.274;2024-03-02T07:22:45;233.00;;;59.30;;
49123;SDS011;48506;48.202;16.274;2024-03-02T07:25:11;269.67;;;60.33;;
49123;SDS011;48506;48.202;16.274;2024-03-02T07:27:38;145.32;;;46.15;;
49123;SDS011;48506;48.202;16.274;2024-03-02T07:30:05;151.07;;;47.45;;
49123;SDS011;48506;48.202;16.274;2024-03-02T07:32:31;339.98;;;71.45;;
49123;SDS011;48506;48.202;16.274;2024-03-02T07:34:57;150.32;;;48.60;;
49123;SDS011;48506;48.202;16.274;2024-03-02T07:37:23;201.10;;;56.40;;
49123;SDS011;48506;48.202;16.274;2024-03-02T07:39:50;123.38;;;49.08;;
49123;SDS011;48506;48.202;16.274;2024-03-02T07:42:16;240.23;;;61.00;;
49123;SDS011;48506;48.202;16.274;2024-03-02T07:44:44;140.88;;;50.63;;
49123;SDS011;48506;48.202;16.274;2024-03-02T07:47:10;127.43;;;49.75;;
49123;SDS011;48506;48.202;16.274;2024-03-02T07:49:36;196.30;;;52.47;;
49123;SDS011;48506;48.202;16.274;2024-03-02T07:52:03;125.82;;;46.50;;
49123;SDS011;48506;48.202;16.274;2024-03-02T07:54:29;163.07;;;49.25;;
49123;SDS011;48506;48.202;16.274;2024-03-02T07:56:55;140.43;;;47.35;;
49123;SDS011;48506;48.202;16.274;2024-03-02T07:59:21;196.10;;;52.75;;
49123;SDS011;48506;48.202;16.274;2024-03-02T08:01:48;140.05;;;46.35;;
49123;SDS011;48506;48.202;16.274;2024-03-02T08:04:16;127.88;;;46.38;;
49123;SDS011;48506;48.202;16.274;2024-03-02T08:06:42;106.05;;;42.22;;
49123;SDS011;48506;48.202;16.274;2024-03-02T08:09:08;98.20;;;41.63;;
49123;SDS011;48506;48.202;16.274;2024-03-02T08:11:36;144.50;;;46.72;;
49123;SDS011;48506;48.202;16.274;2024-03-02T08:14:05;75.10;;;37.40;;
49123;SDS011;48506;48.202;16.274;2024-03-02T08:16:31;105.40;;;43.67;;
49123;SDS011;48506;48.202;16.274;2024-03-02T08:18:58;73.13;;;37.97;;
49123;SDS011;48506;48.202;16.274;2024-03-02T08:21:24;80.93;;;39.22;;
49123;SDS011;48506;48.202;16.274;2024-03-02T08:23:51;85.97;;;39.45;;
49123;SDS011;48506;48.202;16.274;2024-03-02T08:26:17;79.63;;;39.13;;
49123;SDS011;48506;48.202;16.274;2024-03-02T08:28:43;69.90;;;37.28;;
49123;SDS011;48506;48.202;16.274;2024-03-02T08:31:09;59.78;;;34.45;;
49123;SDS011;48506;48.202;16.274;2024-03-02T08:33:35;76.70;;;39.10;;
49123;SDS011;48506;48.202;16.274;2024-03-02T08:36:01;71.07;;;37.03;;
49123;SDS011;48506;48.202;16.274;2024-03-02T08:38:27;72.75;;;39.17;;
49123;SDS011;48506;48.202;16.274;2024-03-02T08:40:54;65.78;;;35.38;;
49123;SDS011;48506;48.202;16.274;2024-03-02T08:43:20;61.22;;;33.75;;
49123;SDS011;48506;48.202;16.274;2024-03-02T08:45:47;62.72;;;35.35;;
49123;SDS011;48506;48.202;16.274;2024-03-02T08:48:14;68.95;;;35.67;;
49123;SDS011;48506;48.202;16.274;2024-03-02T08:50:40;63.80;;;33.70;;
49123;SDS011;48506;48.202;16.274;2024-03-02T08:53:06;64.68;;;36.08;;
49123;SDS011;48506;48.202;16.274;2024-03-02T08:55:32;62.92;;;34.88;;
49123;SDS011;48506;48.202;16.274;2024-03-02T08:57:58;63.00;;;33.35;;
49123;SDS011;48506;48.202;16.274;2024-03-02T09:00:24;64.95;;;35.97;;
49123;SDS011;48506;48.202;16.274;2024-03-02T09:02:51;62.55;;;35.33;;
49123;SDS011;48506;48.202;16.274;2024-03-02T09:05:17;66.50;;;36.00;;
49123;SDS011;48506;48.202;16.274;2024-03-02T09:07:43;76.45;;;39.40;;
49123;SDS011;48506;48.202;16.274;2024-03-02T09:10:09;70.35;;;39.22;;
49123;SDS011;48506;48.202;16.274;2024-03-02T09:12:35;76.55;;;38.90;;
49123;SDS011;48506;48.202;16.274;2024-03-02T09:15:01;68.88;;;37.80;;
49123;SDS011;48506;48.202;16.274;2024-03-02T09:19:57;75.72;;;39.50;;
49123;SDS011;48506;48.202;16.274;2024-03-02T09:22:23;77.00;;;39.08;;
49123;SDS011;48506;48.202;16.274;2024-03-02T09:24:49;78.28;;;43.75;;
49123;SDS011;48506;48.202;16.274;2024-03-02T09:27:15;77.32;;;39.45;;
49123;SDS011;48506;48.202;16.274;2024-03-02T09:29:41;82.35;;;42.70;;
49123;SDS011;48506;48.202;16.274;2024-03-02T09:32:12;70.90;;;40.22;;
49123;SDS011;48506;48.202;16.274;2024-03-02T09:34:39;87.25;;;43.17;;
49123;SDS011;48506;48.202;16.274;2024-03-02T09:37:05;80.38;;;41.13;;
49123;SDS011;48506;48.202;16.274;2024-03-02T09:39:32;84.00;;;42.40;;
49123;SDS011;48506;48.202;16.274;2024-03-02T09:41:58;78.65;;;41.85;;
49123;SDS011;48506;48.202;16.274;2024-03-02T09:44:25;92.68;;;44.30;;
49123;SDS011;48506;48.202;16.274;2024-03-02T09:46:51;89.88;;;47.60;;
49123;SDS011;48506;48.202;16.274;2024-03-02T09:49:17;91.05;;;47.63;;
49123;SDS011;48506;48.202;16.274;2024-03-02T09:51:47;82.93;;;45.33;;
49123;SDS011;48506;48.202;16.274;2024-03-02T09:54:15;83.95;;;43.78;;
49123;SDS011;48506;48.202;16.274;2024-03-02T09:56:41;84.80;;;45.15;;
49123;SDS011;48506;48.202;16.274;2024-03-02T09:59:07;99.97;;;48.30;;
49123;SDS011;48506;48.202;16.274;2024-03-02T10:01:33;97.20;;;47.33;;
49123;SDS011;48506;48.202;16.274;2024-03-02T10:04:00;90.28;;;47.28;;
49123;SDS011;48506;48.202;16.274;2024-03-02T10:06:28;100.43;;;51.15;;
49123;SDS011;48506;48.202;16.274;2024-03-02T10:08:54;90.18;;;47.38;;
49123;SDS011;48506;48.202;16.274;2024-03-02T10:11:28;95.30;;;51.25;;
49123;SDS011;48506;48.202;16.274;2024-03-02T10:14:12;88.20;;;49.08;;
49123;SDS011;48506;48.202;16.274;2024-03-02T10:16:42;101.43;;;50.97;;
49123;SDS011;48506;48.202;16.274;2024-03-02T10:19:16;98.50;;;50.95;;
49123;SDS011;48506;48.202;16.274;2024-03-02T10:24:17;97.20;;;49.33;;
49123;SDS011;48506;48.202;16.274;2024-03-02T10:26:43;93.07;;;49.08;;
49123;SDS011;48506;48.202;16.274;2024-03-02T10:29:10;94.45;;;48.03;;
49123;SDS011;48506;48.202;16.274;2024-03-02T10:31:38;93.00;;;48.45;;
49123;SDS011;48506;48.202;16.274;2024-03-02T10:34:05;88.90;;;48.10;;
49123;SDS011;48506;48.202;16.274;2024-03-02T10:36:33;101.03;;;49.85;;
49123;SDS011;48506;48.202;16.274;2024-03-02T10:39:03;97.50;;;48.67;;
49123;SDS011;48506;48.202;16.274;2024-03-02T10:41:34;89.50;;;46.85;;
49123;SDS011;48506;48.202;16.274;2024-03-02T10:44:04;91.22;;;46.20;;
49123;SDS011;48506;48.202;16.274;2024-03-02T10:46:33;94.97;;;48.00;;
49123;SDS011;48506;48.202;16.274;2024-03-02T10:49:00;94.40;;;51.80;;
49123;SDS011;48506;48.202;16.274;2024-03-02T10:51:30;97.07;;;49.55;;
49123;SDS011;48506;48.202;16.274;2024-03-02T10:54:00;87.03;;;47.17;;
49123;SDS011;48506;48.202;16.274;2024-03-02T10:59:03;89.88;;;47.13;;
49123;SDS011;48506;48.202;16.274;2024-03-02T11:01:34;93.53;;;47.58;;
49123;SDS011;48506;48.202;16.274;2024-03-02T11:04:02;93.40;;;51.28;;
49123;SDS011;48506;48.202;16.274;2024-03-02T11:06:32;90.45;;;48.28;;
49123;SDS011;48506;48.202;16.274;2024-03-02T11:09:00;82.22;;;46.95;;
49123;SDS011;48506;48.202;16.274;2024-03-02T11:11:36;93.30;;;49.10;;
49123;SDS011;48506;48.202;16.274;2024-03-02T11:14:07;89.88;;;46.90;;
49123;SDS011;48506;48.202;16.274;2024-03-02T11:16:38;92.05;;;48.15;;
49123;SDS011;48506;48.202;16.274;2024-03-02T11:19:13;88.15;;;50.00;;
49123;SDS011;48506;48.202;16.274;2024-03-02T11:21:40;89.60;;;47.90;;
49123;SDS011;48506;48.202;16.274;2024-03-02T11:26:53;78.63;;;49.50;;
49123;SDS011;48506;48.202;16.274;2024-03-02T11:32:06;79.07;;;46.72;;
49123;SDS011;48506;48.202;16.274;2024-03-02T11:34:44;76.97;;;44.03;;
49123;SDS011;48506;48.202;16.274;2024-03-02T11:37:12;83.75;;;47.30;;
49123;SDS011;48506;48.202;16.274;2024-03-02T11:39:39;72.28;;;43.47;;
49123;SDS011;48506;48.202;16.274;2024-03-02T11:42:08;86.05;;;49.83;;
49123;SDS011;48506;48.202;16.274;2024-03-02T11:44:40;84.90;;;47.55;;
49123;SDS011;48506;48.202;16.274;2024-03-02T11:47:12;77.18;;;45.80;;
49123;SDS011;48506;48.202;16.274;2024-03-02T11:52:14;83.95;;;47.38;;
49123;SDS011;48506;48.202;16.274;2024-03-02T11:54:43;80.15;;;48.13;;
49123;SDS011;48506;48.202;16.274;2024-03-02T11:57:20;76.78;;;45.10;;
49123;SDS011;48506;48.202;16.274;2024-03-02T11:59:51;85.90;;;46.20;;
49123;SDS011;48506;48.202;16.274;2024-03-02T12:02:20;80.75;;;45.58;;
49123;SDS011;48506;48.202;16.274;2024-03-02T12:04:47;76.57;;;45.20;;
49123;SDS011;48506;48.202;16.274;2024-03-02T12:07:18;77.40;;;44.17;;
49123;SDS011;48506;48.202;16.274;2024-03-02T12:09:47;75.50;;;46.03;;
49123;SDS011;48506;48.202;16.274;2024-03-02T12:12:13;72.65;;;44.80;;
49123;SDS011;48506;48.202;16.274;2024-03-02T12:14:49;74.35;;;43.78;;
49123;SDS011;48506;48.202;16.274;2024-03-02T12:17:18;69.22;;;43.60;;
49123;SDS011;48506;48.202;16.274;2024-03-02T12:19:44;68.30;;;42.97;;
49123;SDS011;48506;48.202;16.274;2024-03-02T12:22:11;78.05;;;44.05;;
49123;SDS011;48506;48.202;16.274;2024-03-02T12:24:37;72.85;;;41.85;;
49123;SDS011;48506;48.202;16.274;2024-03-02T12:27:03;74.28;;;43.08;;
49123;SDS011;48506;48.202;16.274;2024-03-02T12:29:31;73.22;;;43.78;;
49123;SDS011;48506;48.202;16.274;2024-03-02T12:31:58;70.97;;;42.05;;
49123;SDS011;48506;48.202;16.274;2024-03-02T12:34:27;52.67;;;30.60;;
49123;SDS011;48506;48.202;16.274;2024-03-02T12:36:52;70.25;;;43.28;;
49123;SDS011;48506;48.202;16.274;2024-03-02T12:39:19;73.88;;;42.40;;
49123;SDS011;48506;48.202;16.274;2024-03-02T12:41:46;73.78;;;44.15;;
49123;SDS011;48506;48.202;16.274;2024-03-02T12:44:12;70.38;;;43.60;;
49123;SDS011;48506;48.202;16.274;2024-03-02T12:46:38;73.38;;;44.15;;
49123;SDS011;48506;48.202;16.274;2024-03-02T12:49:07;65.15;;;40.65;;
49123;SDS011;48506;48.202;16.274;2024-03-02T12:51:36;67.10;;;40.42;;
49123;SDS011;48506;48.202;16.274;2024-03-02T12:54:06;69.28;;;41.78;;
49123;SDS011;48506;48.202;16.274;2024-03-02T12:56:33;64.35;;;40.53;;
49123;SDS011;48506;48.202;16.274;2024-03-02T12:59:00;62.88;;;42.28;;
49123;SDS011;48506;48.202;16.274;2024-03-02T13:01:26;65.57;;;40.53;;
49123;SDS011;48506;48.202;16.274;2024-03-02T13:03:52;60.95;;;39.95;;
49123;SDS011;48506;48.202;16.274;2024-03-02T13:06:21;61.78;;;40.47;;
49123;SDS011;48506;48.202;16.274;2024-03-02T13:08:47;63.50;;;41.55;;
49123;SDS011;48506;48.202;16.274;2024-03-02T13:11:13;56.38;;;37.35;;
49123;SDS011;48506;48.202;16.274;2024-03-02T13:13:41;57.35;;;36.42;;
49123;SDS011;48506;48.202;16.274;2024-03-02T13:16:08;60.35;;;38.40;;
49123;SDS011;48506;48.202;16.274;2024-03-02T13:18:35;54.20;;;37.80;;
49123;SDS011;48506;48.202;16.274;2024-03-02T13:21:02;60.72;;;38.72;;
49123;SDS011;48506;48.202;16.274;2024-03-02T13:23:28;59.00;;;38.05;;
49123;SDS011;48506;48.202;16.274;2024-03-02T13:25:56;54.67;;;37.25;;
49123;SDS011;48506;48.202;16.274;2024-03-02T13:28:25;51.53;;;29.48;;
49123;SDS011;48506;48.202;16.274;2024-03-02T13:30:51;52.60;;;36.97;;
49123;SDS011;48506;48.202;16.274;2024-03-02T13:33:17;53.13;;;36.28;;
49123;SDS011;48506;48.202;16.274;2024-03-02T13:35:48;57.10;;;37.67;;
49123;SDS011;48506;48.202;16.274;2024-03-02T13:38:19;51.20;;;35.00;;
49123;SDS011;48506;48.202;16.274;2024-03-02T13:40:46;49.55;;;33.90;;
49123;SDS011;48506;48.202;16.274;2024-03-02T13:43:17;50.70;;;34.72;;
49123;SDS011;48506;48.202;16.274;2024-03-02T13:45:46;49.42;;;34.70;;
49123;SDS011;48506;48.202;16.274;2024-03-02T13:48:13;56.40;;;35.67;;
49123;SDS011;48506;48.202;16.274;2024-03-02T13:50:39;53.30;;;35.00;;
49123;SDS011;48506;48.202;16.274;2024-03-02T13:53:06;52.28;;;34.60;;
49123;SDS011;48506;48.202;16.274;2024-03-02T13:55:33;51.92;;;33.75;;
49123;SDS011;48506;48.202;16.274;2024-03-02T13:57:59;50.95;;;35.00;;
49123;SDS011;48506;48.202;16.274;2024-03-02T14:00:25;48.03;;;33.50;;
49123;SDS011;48506;48.202;16.274;2024-03-02T14:02:51;55.92;;;37.15;;
49123;SDS011;48506;48.202;16.274;2024-03-02T14:05:17;48.65;;;32.80;;
49123;SDS011;48506;48.202;16.274;2024-03-02T14:07:44;54.25;;;36.47;;
49123;SDS011;48506;48.202;16.274;2024-03-02T14:10:10;54.10;;;32.80;;
49123;SDS011;48506;48.202;16.274;2024-03-02T14:12:36;53.40;;;35.22;;
49123;SDS011;48506;48.202;16.274;2024-03-02T14:15:03;50.63;;;33.28;;
49123;SDS011;48506;48.202;16.274;2024-03-02T14:17:30;50.47;;;32.08;;
49123;SDS011;48506;48.202;16.274;2024-03-02T14:19:57;50.92;;;35.03;;
49123;SDS011;48506;48.202;16.274;2024-03-02T14:22:26;51.30;;;34.10;;
49123;SDS011;48506;48.202;16.274;2024-03-02T14:24:52;48.10;;;32.75;;